createdAt,value
2019-05-02T06:11:29.049Z,95.37
2019-05-02T06:14:00.374Z,99.53
2019-05-02T06:16:36.316Z,105.33
2019-05-02T06:19:39.078Z,105.43
2019-05-02T06:22:28.684Z,105.10
2019-05-02T06:28:06.818Z,90.43
2019-05-02T06:30:38.246Z,95.20
2019-05-02T06:33:25.808Z,85.97
2019-05-02T06:36:01.036Z,83.73
2019-05-02T06:46:46.856Z,98.70
2019-05-02T06:52:21.321Z,99.17
2019-05-02T06:57:45.502Z,101.27
2019-05-02T07:00:18.603Z,92.13
2019-05-02T07:03:04.998Z,93.13
2019-05-02T07:09:38.667Z,99.93
2019-05-02T07:12:09.995Z,96.77
2019-05-02T07:14:39.258Z,83.80
2019-05-02T07:17:21.238Z,88.63
2019-05-02T07:19:54.347Z,96.13
2019-05-02T07:22:41.143Z,95.20
2019-05-02T07:25:11.641Z,94.87
2019-05-02T07:27:41.719Z,104.90
2019-05-02T07:30:12.933Z,99.30
2019-05-02T07:32:45.223Z,88.60
2019-05-02T07:35:19.358Z,89.77
2019-05-02T07:37:54.658Z,98.37
2019-05-02T07:40:24.255Z,90.63
2019-05-02T07:42:53.887Z,96.30
2019-05-02T07:45:23.539Z,98.83
2019-05-02T07:50:52.558Z,95.90
2019-05-02T07:53:27.845Z,99.07
2019-05-02T07:56:04.777Z,95.03
2019-05-02T07:58:38.501Z,106.93
2019-05-02T08:01:08.180Z,103.27
2019-05-02T08:03:38.117Z,102.13
2019-05-02T08:06:13.133Z,105.33
2019-05-02T08:08:46.634Z,103.40
2019-05-02T08:11:16.768Z,104.43
2019-05-02T08:13:49.620Z,104.60
2019-05-02T08:16:22.326Z,105.03
2019-05-02T08:21:48.224Z,110.47
2019-05-02T08:24:18.005Z,109.10
2019-05-02T08:42:43.492Z,115.43
2019-05-02T08:57:51.600Z,130.73
2019-05-02T09:00:23.825Z,118.30
2019-05-02T09:03:02.686Z,120.27
2019-05-02T09:15:28.768Z,128.13
2019-05-02T09:18:22.278Z,124.80
2019-05-02T09:23:44.112Z,115.80
2019-05-02T09:26:36.089Z,124.00
2019-05-02T09:32:26.228Z,125.70
2019-05-02T09:37:57.047Z,115.27
2019-05-02T09:40:31.968Z,108.47
2019-05-02T09:43:29.346Z,106.47
2019-05-02T09:46:42.853Z,98.10
2019-05-02T10:01:06.364Z,92.80
2019-05-02T10:03:45.053Z,103.57
2019-05-02T10:06:24.285Z,103.63
2019-05-02T10:09:02.799Z,93.77
2019-05-02T10:11:41.933Z,85.40
2019-05-02T10:14:13.050Z,97.43
2019-05-02T10:16:52.752Z,93.03
2019-05-02T10:19:15.875Z,92.37
2019-05-02T10:21:47.094Z,94.57
2019-05-02T10:24:22.047Z,98.43
2019-05-02T10:27:04.071Z,98.70
2019-05-02T10:30:11.573Z,89.73
2019-05-02T10:32:34.239Z,85.13
2019-05-02T10:35:05.415Z,85.37
2019-05-02T10:37:38.173Z,76.07
2019-05-02T10:40:32.239Z,72.97
2019-05-02T10:43:16.272Z,70.20
2019-05-02T10:46:04.115Z,62.53
2019-05-02T10:48:37.677Z,70.53
2019-05-02T10:51:26.255Z,68.23
2019-05-02T10:53:56.627Z,55.90
2019-05-02T10:56:32.291Z,54.90
2019-05-02T10:59:02.305Z,40.43
2019-05-02T11:01:38.278Z,31.10
2019-05-02T11:04:12.936Z,31.83
2019-05-02T11:06:47.205Z,17.20
2019-05-02T11:09:26.072Z,16.80
2019-05-02T11:11:55.722Z,22.93
2019-05-02T11:15:03.407Z,22.77
2019-05-02T11:17:39.571Z,26.80
2019-05-02T11:20:18.963Z,29.53
2019-05-02T11:22:54.742Z,35.33
2019-05-02T11:25:36.173Z,36.40
2019-05-02T11:28:32.275Z,45.80
2019-05-02T11:31:12.374Z,38.83
2019-05-02T11:33:45.136Z,42.53
2019-05-02T11:36:18.687Z,41.30
2019-05-02T11:38:57.154Z,45.10
2019-05-02T11:41:23.317Z,41.00
2019-05-02T11:43:55.742Z,47.80
2019-05-02T11:46:26.585Z,42.50
2019-05-02T11:49:03.604Z,43.23
2019-05-02T11:51:37.121Z,48.00
2019-05-02T11:54:12.712Z,47.17
2019-05-02T11:56:48.884Z,47.40
2019-05-02T11:59:27.703Z,50.40
2019-05-02T12:02:03.663Z,52.87
2019-05-02T12:04:41.816Z,55.47
2019-05-02T12:07:17.932Z,58.37
2019-05-02T12:09:56.971Z,62.63
2019-05-02T12:12:36.317Z,64.63
2019-05-02T12:15:04.600Z,66.30
2019-05-02T12:17:34.131Z,58.33
2019-05-02T12:20:33.076Z,60.03
2019-05-02T12:23:14.497Z,57.87
2019-05-02T12:25:46.066Z,55.43
2019-05-02T12:28:16.826Z,65.33
2019-05-02T12:30:51.969Z,51.10
2019-05-02T12:33:29.299Z,48.43
2019-05-02T12:36:02.086Z,49.77
2019-05-02T12:38:35.647Z,51.07
2019-05-02T12:41:20.318Z,47.83
2019-05-02T12:43:55.973Z,54.23
2019-05-02T12:46:46.284Z,52.57
2019-05-02T12:49:25.399Z,45.23
2019-05-02T12:52:09.113Z,47.70
2019-05-02T12:54:41.564Z,45.97
2019-05-02T12:57:17.547Z,40.83
2019-05-02T12:59:47.504Z,45.23
2019-05-02T13:02:33.108Z,36.50
2019-05-02T13:05:04.825Z,43.90
2019-05-02T13:08:02.425Z,42.03
2019-05-02T13:11:02.418Z,42.73
2019-05-02T13:13:35.641Z,36.07
2019-05-02T13:16:13.711Z,37.83
2019-05-02T13:18:57.266Z,46.87
2019-05-02T13:21:44.998Z,39.50
2019-05-02T13:27:43.284Z,38.47
2019-05-02T13:30:43.001Z,40.43
2019-05-02T13:37:06.744Z,34.63
2019-05-02T13:40:08.431Z,40.57
2019-05-02T13:45:53.286Z,38.07
2019-05-02T13:52:05.161Z,40.03
2019-05-02T13:54:54.675Z,34.70
2019-05-02T13:57:54.237Z,34.50
2019-05-02T14:12:42.197Z,30.43
2019-05-02T14:35:52.542Z,20.93
2019-05-02T14:45:19.855Z,17.50
2019-05-02T14:51:01.814Z,17.13
2019-05-02T14:53:34.170Z,16.67
2019-05-02T14:56:48.732Z,11.97
2019-05-02T14:59:19.820Z,11.57
2019-05-02T15:02:12.971Z,14.17
2019-05-02T15:07:51.807Z,15.43
2019-05-02T15:10:28.225Z,14.73
2019-05-02T15:16:17.682Z,12.33
2019-05-02T15:19:09.865Z,22.67
2019-05-02T15:21:55.996Z,10.97
2019-05-02T15:24:33.236Z,9.33
2019-05-02T15:28:06.902Z,12.17
2019-05-02T15:30:49.313Z,9.37
2019-05-02T15:36:42.253Z,7.97
2019-05-02T15:42:09.832Z,11.70
2019-05-02T15:48:02.519Z,14.23
2019-05-02T15:51:08.954Z,11.17
2019-05-02T15:54:55.428Z,12.37
2019-05-02T15:59:07.995Z,14.30
2019-05-02T16:01:36.507Z,15.83
2019-05-02T16:05:02.348Z,7.53
2019-05-02T16:07:46.590Z,8.17
2019-05-02T16:11:27.747Z,7.07
2019-05-02T16:24:11.169Z,9.70
2019-05-02T16:26:48.202Z,7.20
2019-05-02T16:34:46.187Z,13.27
2019-05-02T16:37:00.750Z,9.27
2019-05-02T16:40:22.037Z,4.70
2019-05-02T16:43:24.687Z,6.40
2019-05-02T16:46:17.447Z,9.40
2019-05-02T16:48:52.713Z,5.87
2019-05-02T16:51:31.027Z,5.87
2019-05-02T16:54:59.664Z,7.73
2019-05-02T16:58:07.158Z,7.03
2019-05-02T17:00:55.199Z,8.07
2019-05-02T17:03:42.060Z,5.47
2019-05-02T17:06:52.327Z,3.70
2019-05-02T17:09:48.287Z,11.00
2019-05-02T17:12:36.118Z,7.93
2019-05-02T17:15:31.120Z,6.87
2019-05-02T17:18:14.626Z,5.33
2019-05-02T17:20:53.532Z,4.97
2019-05-02T17:23:26.593Z,9.77
2019-05-02T17:26:12.457Z,8.97
2019-05-02T17:28:47.069Z,9.10
2019-05-02T17:31:55.529Z,9.20
2019-05-02T17:34:37.520Z,6.30
2019-05-02T17:37:19.384Z,4.40
2019-05-02T17:39:51.820Z,7.23
2019-05-02T19:37:21.687Z,8.00
2019-05-02T19:47:42.024Z,3.93
2019-05-02T20:31:35.762Z,8.73
2019-05-02T20:38:47.148Z,8.83
2019-05-02T20:41:28.454Z,10.03
2019-05-02T20:44:14.264Z,12.70
2019-05-02T20:58:34.061Z,7.37
2019-05-02T21:01:12.895Z,10.30
2019-05-02T21:04:43.995Z,11.43
2019-05-02T21:08:03.448Z,12.97
2019-05-02T21:10:57.369Z,8.47
2019-05-02T21:13:54.222Z,11.33
2019-05-02T21:17:15.319Z,6.13
2019-05-02T21:19:42.862Z,12.83
2019-05-02T21:22:57.309Z,8.47
2019-05-02T21:31:07.581Z,8.27
2019-05-02T21:34:18.109Z,9.07
2019-05-02T21:37:22.465Z,15.10
2019-05-02T21:40:39.284Z,10.87
2019-05-02T21:43:42.611Z,9.83
2019-05-02T21:49:49.896Z,10.63
2019-05-02T21:52:29.173Z,9.17
2019-05-02T21:55:23.868Z,6.63
2019-05-02T21:57:59.168Z,10.00
2019-05-02T22:03:57.722Z,9.40
2019-05-02T22:06:39.762Z,11.00
2019-05-02T22:09:16.800Z,11.73
2019-05-02T22:14:35.471Z,11.13
2019-05-02T22:17:29.146Z,14.07
2019-05-02T22:20:38.393Z,11.70
2019-05-02T22:23:18.390Z,10.50
2019-05-02T22:25:56.251Z,11.67
2019-05-02T22:28:54.392Z,13.13
2019-05-02T22:34:28.318Z,6.20
2019-05-02T22:37:50.811Z,9.40
2019-05-02T22:40:58.360Z,8.43
2019-05-02T22:47:15.099Z,13.85
2019-05-02T22:49:59.835Z,12.15
2019-05-02T22:52:58.250Z,11.00
2019-05-02T22:55:42.554Z,10.77
2019-05-02T22:58:44.098Z,7.03
2019-05-02T23:01:25.305Z,9.77
2019-05-02T23:04:58.016Z,9.23
2019-05-02T23:07:54.415Z,12.90
2019-05-02T23:10:24.291Z,13.63
2019-05-02T23:13:02.386Z,8.13
2019-05-02T23:15:52.182Z,11.97
2019-05-02T23:21:54.297Z,9.27
2019-05-02T23:28:04.249Z,11.53
2019-05-02T23:31:44.273Z,10.03
2019-05-02T23:35:03.576Z,5.93
2019-05-02T23:37:36.243Z,14.77
2019-05-02T23:40:08.337Z,8.77
2019-05-02T23:43:06.113Z,9.87
2019-05-02T23:45:46.315Z,14.00
2019-05-02T23:48:35.589Z,9.67
2019-05-02T23:51:23.173Z,11.70
2019-05-02T23:55:03.805Z,8.17
2019-05-02T23:57:33.392Z,9.20
